sensor_id;sensor_type;location;lat;lon;timestamp;P1;durP1;ratioP1;P2;durP2;ratioP2
40737;SDS011;54759;48.094;-1.628;2023-07-20T00:00:50;0.47;;;0.45;;
40737;SDS011;54759;48.094;-1.628;2023-07-20T00:03:57;0.52;;;0.32;;
40737;SDS011;54759;48.094;-1.628;2023-07-20T00:06:59;0.43;;;0.30;;
40737;SDS011;54759;48.094;-1.628;2023-07-20T00:10:01;0.50;;;0.30;;
40737;SDS011;54759;48.094;-1.628;2023-07-20T00:13:03;0.57;;;0.32;;
40737;SDS011;54759;48.094;-1.628;2023-07-20T00:16:08;0.45;;;0.35;;
40737;SDS011;54759;48.094;-1.628;2023-07-20T00:19:09;0.40;;;0.22;;
40737;SDS011;54759;48.094;-1.628;2023-07-20T00:22:11;0.30;;;0.28;;
40737;SDS011;54759;48.094;-1.628;2023-07-20T00:25:14;0.45;;;0.45;;
40737;SDS011;54759;48.094;-1.628;2023-07-20T00:28:16;0.30;;;0.30;;
40737;SDS011;54759;48.094;-1.628;2023-07-20T00:31:18;0.32;;;0.30;;
40737;SDS011;54759;48.094;-1.628;2023-07-20T00:34:22;0.95;;;0.30;;
40737;SDS011;54759;48.094;-1.628;2023-07-20T00:37:24;0.32;;;0.30;;
40737;SDS011;54759;48.094;-1.628;2023-07-20T00:40:26;0.45;;;0.20;;
40737;SDS011;54759;48.094;-1.628;2023-07-20T00:43:28;0.63;;;0.43;;
40737;SDS011;54759;48.094;-1.628;2023-07-20T00:46:30;0.35;;;0.30;;
40737;SDS011;54759;48.094;-1.628;2023-07-20T00:49:34;0.82;;;0.30;;
40737;SDS011;54759;48.094;-1.628;2023-07-20T00:52:38;0.45;;;0.30;;
40737;SDS011;54759;48.094;-1.628;2023-07-20T00:55:40;0.80;;;0.40;;
40737;SDS011;54759;48.094;-1.628;2023-07-20T00:58:44;0.60;;;0.30;;
40737;SDS011;54759;48.094;-1.628;2023-07-20T01:01:46;0.45;;;0.30;;
40737;SDS011;54759;48.094;-1.628;2023-07-20T01:04:50;0.25;;;0.20;;
40737;SDS011;54759;48.094;-1.628;2023-07-20T01:07:54;0.20;;;0.20;;
40737;SDS011;54759;48.094;-1.628;2023-07-20T01:11:02;0.75;;;0.20;;
40737;SDS011;54759;48.094;-1.628;2023-07-20T01:14:11;0.20;;;0.20;;
40737;SDS011;54759;48.094;-1.628;2023-07-20T01:17:15;0.68;;;0.30;;
40737;SDS011;54759;48.094;-1.628;2023-07-20T01:20:19;0.30;;;0.20;;
40737;SDS011;54759;48.094;-1.628;2023-07-20T01:26:36;0.40;;;0.32;;
40737;SDS011;54759;48.094;-1.628;2023-07-20T01:29:58;0.30;;;0.30;;
40737;SDS011;54759;48.094;-1.628;2023-07-20T01:33:15;0.30;;;0.20;;
40737;SDS011;54759;48.094;-1.628;2023-07-20T01:36:21;0.68;;;0.30;;
40737;SDS011;54759;48.094;-1.628;2023-07-20T01:39:25;0.38;;;0.30;;
40737;SDS011;54759;48.094;-1.628;2023-07-20T01:42:28;0.25;;;0.25;;
40737;SDS011;54759;48.094;-1.628;2023-07-20T01:45:30;0.40;;;0.40;;
40737;SDS011;54759;48.094;-1.628;2023-07-20T01:48:33;0.75;;;0.25;;
40737;SDS011;54759;48.094;-1.628;2023-07-20T01:51:35;0.28;;;0.28;;
40737;SDS011;54759;48.094;-1.628;2023-07-20T01:54:37;0.22;;;0.20;;
40737;SDS011;54759;48.094;-1.628;2023-07-20T01:57:40;0.30;;;0.30;;
40737;SDS011;54759;48.094;-1.628;2023-07-20T02:00:42;0.40;;;0.30;;
40737;SDS011;54759;48.094;-1.628;2023-07-20T02:03:46;0.45;;;0.40;;
40737;SDS011;54759;48.094;-1.628;2023-07-20T02:06:47;0.47;;;0.30;;
40737;SDS011;54759;48.094;-1.628;2023-07-20T02:09:49;1.05;;;0.20;;
40737;SDS011;54759;48.094;-1.628;2023-07-20T02:12:51;0.65;;;0.20;;
40737;SDS011;54759;48.094;-1.628;2023-07-20T02:15:53;0.20;;;0.20;;
40737;SDS011;54759;48.094;-1.628;2023-07-20T02:18:58;0.75;;;0.43;;
40737;SDS011;54759;48.094;-1.628;2023-07-20T02:21:59;0.20;;;0.20;;
40737;SDS011;54759;48.094;-1.628;2023-07-20T02:25:01;0.28;;;0.20;;
40737;SDS011;54759;48.094;-1.628;2023-07-20T02:28:09;0.40;;;0.40;;
40737;SDS011;54759;48.094;-1.628;2023-07-20T02:31:11;1.20;;;0.43;;
40737;SDS011;54759;48.094;-1.628;2023-07-20T02:34:14;0.60;;;0.50;;
40737;SDS011;54759;48.094;-1.628;2023-07-20T02:37:16;0.63;;;0.30;;
40737;SDS011;54759;48.094;-1.628;2023-07-20T02:40:19;0.20;;;0.20;;
40737;SDS011;54759;48.094;-1.628;2023-07-20T02:43:21;0.40;;;0.30;;
40737;SDS011;54759;48.094;-1.628;2023-07-20T02:46:23;0.55;;;0.30;;
40737;SDS011;54759;48.094;-1.628;2023-07-20T02:49:27;0.55;;;0.30;;
40737;SDS011;54759;48.094;-1.628;2023-07-20T02:52:31;0.30;;;0.30;;
40737;SDS011;54759;48.094;-1.628;2023-07-20T02:55:33;0.43;;;0.20;;
40737;SDS011;54759;48.094;-1.628;2023-07-20T02:58:35;0.40;;;0.22;;
40737;SDS011;54759;48.094;-1.628;2023-07-20T03:01:37;0.65;;;0.30;;
40737;SDS011;54759;48.094;-1.628;2023-07-20T03:04:40;0.47;;;0.38;;
40737;SDS011;54759;48.094;-1.628;2023-07-20T03:07:41;0.40;;;0.30;;
40737;SDS011;54759;48.094;-1.628;2023-07-20T03:10:44;0.40;;;0.20;;
40737;SDS011;54759;48.094;-1.628;2023-07-20T03:13:48;0.73;;;0.35;;
40737;SDS011;54759;48.094;-1.628;2023-07-20T03:16:51;0.52;;;0.40;;
40737;SDS011;54759;48.094;-1.628;2023-07-20T03:19:53;0.32;;;0.30;;
40737;SDS011;54759;48.094;-1.628;2023-07-20T03:22:55;0.32;;;0.30;;
40737;SDS011;54759;48.094;-1.628;2023-07-20T03:25:57;0.38;;;0.30;;
40737;SDS011;54759;48.094;-1.628;2023-07-20T03:28:59;0.35;;;0.30;;
40737;SDS011;54759;48.094;-1.628;2023-07-20T03:32:01;0.50;;;0.30;;
40737;SDS011;54759;48.094;-1.628;2023-07-20T03:35:06;0.32;;;0.30;;
40737;SDS011;54759;48.094;-1.628;2023-07-20T03:38:08;0.45;;;0.25;;
40737;SDS011;54759;48.094;-1.628;2023-07-20T03:41:13;0.50;;;0.28;;
40737;SDS011;54759;48.094;-1.628;2023-07-20T03:44:16;0.40;;;0.30;;
40737;SDS011;54759;48.094;-1.628;2023-07-20T03:47:18;0.30;;;0.25;;
40737;SDS011;54759;48.094;-1.628;2023-07-20T03:50:21;0.40;;;0.30;;
40737;SDS011;54759;48.094;-1.628;2023-07-20T03:53:26;0.30;;;0.30;;
40737;SDS011;54759;48.094;-1.628;2023-07-20T03:56:27;0.40;;;0.40;;
40737;SDS011;54759;48.094;-1.628;2023-07-20T03:59:31;0.35;;;0.20;;
40737;SDS011;54759;48.094;-1.628;2023-07-20T04:02:34;0.30;;;0.30;;
40737;SDS011;54759;48.094;-1.628;2023-07-20T04:05:37;0.35;;;0.20;;
40737;SDS011;54759;48.094;-1.628;2023-07-20T04:08:38;0.20;;;0.20;;
40737;SDS011;54759;48.094;-1.628;2023-07-20T04:11:41;0.35;;;0.30;;
40737;SDS011;54759;48.094;-1.628;2023-07-20T04:14:43;0.30;;;0.30;;
40737;SDS011;54759;48.094;-1.628;2023-07-20T04:17:45;0.28;;;0.28;;
40737;SDS011;54759;48.094;-1.628;2023-07-20T04:20:48;0.30;;;0.20;;
40737;SDS011;54759;48.094;-1.628;2023-07-20T04:23:49;0.30;;;0.25;;
40737;SDS011;54759;48.094;-1.628;2023-07-20T04:26:52;0.50;;;0.30;;
40737;SDS011;54759;48.094;-1.628;2023-07-20T04:29:54;0.52;;;0.30;;
40737;SDS011;54759;48.094;-1.628;2023-07-20T04:32:57;0.40;;;0.30;;
40737;SDS011;54759;48.094;-1.628;2023-07-20T04:36:00;0.57;;;0.30;;
40737;SDS011;54759;48.094;-1.628;2023-07-20T04:39:07;0.88;;;0.40;;
40737;SDS011;54759;48.094;-1.628;2023-07-20T04:42:23;0.20;;;0.20;;
40737;SDS011;54759;48.094;-1.628;2023-07-20T04:45:28;0.32;;;0.30;;
40737;SDS011;54759;48.094;-1.628;2023-07-20T04:48:30;0.50;;;0.30;;
40737;SDS011;54759;48.094;-1.628;2023-07-20T04:51:33;0.40;;;0.40;;
40737;SDS011;54759;48.094;-1.628;2023-07-20T04:54:35;0.50;;;0.40;;
40737;SDS011;54759;48.094;-1.628;2023-07-20T04:57:37;0.30;;;0.30;;
40737;SDS011;54759;48.094;-1.628;2023-07-20T05:00:40;0.43;;;0.40;;
40737;SDS011;54759;48.094;-1.628;2023-07-20T05:03:43;0.47;;;0.38;;
40737;SDS011;54759;48.094;-1.628;2023-07-20T05:06:46;0.40;;;0.35;;
40737;SDS011;54759;48.094;-1.628;2023-07-20T05:09:48;0.30;;;0.30;;
40737;SDS011;54759;48.094;-1.628;2023-07-20T05:12:50;0.40;;;0.30;;
40737;SDS011;54759;48.094;-1.628;2023-07-20T05:15:52;0.57;;;0.35;;
40737;SDS011;54759;48.094;-1.628;2023-07-20T05:18:55;0.28;;;0.28;;
40737;SDS011;54759;48.094;-1.628;2023-07-20T05:21:58;0.77;;;0.73;;
40737;SDS011;54759;48.094;-1.628;2023-07-20T05:25:00;0.52;;;0.30;;
40737;SDS011;54759;48.094;-1.628;2023-07-20T05:28:04;0.35;;;0.30;;
40737;SDS011;54759;48.094;-1.628;2023-07-20T05:31:07;0.20;;;0.20;;
40737;SDS011;54759;48.094;-1.628;2023-07-20T05:34:09;0.40;;;0.32;;
40737;SDS011;54759;48.094;-1.628;2023-07-20T05:37:11;0.47;;;0.40;;
40737;SDS011;54759;48.094;-1.628;2023-07-20T05:40:15;0.63;;;0.40;;
40737;SDS011;54759;48.094;-1.628;2023-07-20T05:43:19;0.30;;;0.20;;
40737;SDS011;54759;48.094;-1.628;2023-07-20T05:46:21;0.38;;;0.38;;
40737;SDS011;54759;48.094;-1.628;2023-07-20T05:49:25;1.17;;;0.65;;
40737;SDS011;54759;48.094;-1.628;2023-07-20T05:52:27;0.80;;;0.50;;
40737;SDS011;54759;48.094;-1.628;2023-07-20T05:55:29;0.30;;;0.20;;
40737;SDS011;54759;48.094;-1.628;2023-07-20T05:58:33;0.68;;;0.30;;
40737;SDS011;54759;48.094;-1.628;2023-07-20T06:01:35;0.75;;;0.35;;
40737;SDS011;54759;48.094;-1.628;2023-07-20T06:04:38;0.30;;;0.30;;
40737;SDS011;54759;48.094;-1.628;2023-07-20T06:07:40;0.95;;;0.63;;
40737;SDS011;54759;48.094;-1.628;2023-07-20T06:10:42;0.65;;;0.30;;
40737;SDS011;54759;48.094;-1.628;2023-07-20T06:13:46;0.40;;;0.32;;
40737;SDS011;54759;48.094;-1.628;2023-07-20T06:16:48;0.40;;;0.40;;
40737;SDS011;54759;48.094;-1.628;2023-07-20T06:19:49;0.38;;;0.32;;
40737;SDS011;54759;48.094;-1.628;2023-07-20T06:22:52;0.40;;;0.40;;
40737;SDS011;54759;48.094;-1.628;2023-07-20T06:25:54;0.45;;;0.35;;
40737;SDS011;54759;48.094;-1.628;2023-07-20T06:28:56;0.68;;;0.40;;
40737;SDS011;54759;48.094;-1.628;2023-07-20T06:31:58;0.80;;;0.38;;
40737;SDS011;54759;48.094;-1.628;2023-07-20T06:35:01;0.70;;;0.20;;
40737;SDS011;54759;48.094;-1.628;2023-07-20T06:38:04;0.90;;;0.40;;
40737;SDS011;54759;48.094;-1.628;2023-07-20T06:41:08;0.73;;;0.40;;
40737;SDS011;54759;48.094;-1.628;2023-07-20T06:44:13;1.05;;;0.43;;
40737;SDS011;54759;48.094;-1.628;2023-07-20T06:47:16;1.10;;;0.30;;
40737;SDS011;54759;48.094;-1.628;2023-07-20T06:50:18;0.70;;;0.32;;
40737;SDS011;54759;48.094;-1.628;2023-07-20T06:53:21;0.40;;;0.40;;
40737;SDS011;54759;48.094;-1.628;2023-07-20T06:56:27;0.40;;;0.32;;
40737;SDS011;54759;48.094;-1.628;2023-07-20T06:59:31;0.90;;;0.30;;
40737;SDS011;54759;48.094;-1.628;2023-07-20T07:02:33;0.60;;;0.40;;
40737;SDS011;54759;48.094;-1.628;2023-07-20T07:05:35;0.98;;;0.50;;
40737;SDS011;54759;48.094;-1.628;2023-07-20T07:08:39;0.30;;;0.30;;
40737;SDS011;54759;48.094;-1.628;2023-07-20T07:11:41;3.63;;;0.80;;
40737;SDS011;54759;48.094;-1.628;2023-07-20T07:14:43;3.20;;;1.10;;
40737;SDS011;54759;48.094;-1.628;2023-07-20T07:17:45;3.65;;;1.60;;
40737;SDS011;54759;48.094;-1.628;2023-07-20T07:20:50;4.45;;;1.85;;
40737;SDS011;54759;48.094;-1.628;2023-07-20T07:23:53;2.53;;;1.30;;
40737;SDS011;54759;48.094;-1.628;2023-07-20T07:26:59;3.50;;;1.30;;
40737;SDS011;54759;48.094;-1.628;2023-07-20T07:30:00;2.42;;;0.98;;
40737;SDS011;54759;48.094;-1.628;2023-07-20T07:33:02;1.08;;;0.93;;
40737;SDS011;54759;48.094;-1.628;2023-07-20T07:36:06;1.92;;;0.90;;
40737;SDS011;54759;48.094;-1.628;2023-07-20T07:39:08;2.20;;;1.00;;
40737;SDS011;54759;48.094;-1.628;2023-07-20T07:42:13;1.65;;;1.00;;
40737;SDS011;54759;48.094;-1.628;2023-07-20T07:45:18;1.85;;;0.80;;
40737;SDS011;54759;48.094;-1.628;2023-07-20T07:48:20;1.30;;;0.88;;
40737;SDS011;54759;48.094;-1.628;2023-07-20T07:51:22;2.75;;;0.65;;
40737;SDS011;54759;48.094;-1.628;2023-07-20T07:54:25;1.13;;;0.60;;
40737;SDS011;54759;48.094;-1.628;2023-07-20T07:57:26;1.73;;;0.70;;
40737;SDS011;54759;48.094;-1.628;2023-07-20T08:00:31;1.13;;;0.77;;
40737;SDS011;54759;48.094;-1.628;2023-07-20T08:03:33;2.55;;;0.80;;
40737;SDS011;54759;48.094;-1.628;2023-07-20T08:06:37;2.58;;;0.90;;
40737;SDS011;54759;48.094;-1.628;2023-07-20T08:09:40;1.27;;;1.00;;
40737;SDS011;54759;48.094;-1.628;2023-07-20T08:12:47;3.13;;;1.13;;
40737;SDS011;54759;48.094;-1.628;2023-07-20T08:15:49;1.65;;;0.88;;
40737;SDS011;54759;48.094;-1.628;2023-07-20T08:18:52;3.05;;;1.10;;
40737;SDS011;54759;48.094;-1.628;2023-07-20T08:21:54;1.17;;;0.70;;
40737;SDS011;54759;48.094;-1.628;2023-07-20T08:24:56;2.65;;;1.00;;
40737;SDS011;54759;48.094;-1.628;2023-07-20T08:27:58;1.33;;;0.70;;
40737;SDS011;54759;48.094;-1.628;2023-07-20T08:31:01;1.00;;;0.80;;
40737;SDS011;54759;48.094;-1.628;2023-07-20T08:34:03;2.35;;;0.90;;
40737;SDS011;54759;48.094;-1.628;2023-07-20T08:37:20;1.58;;;0.70;;
40737;SDS011;54759;48.094;-1.628;2023-07-20T08:40:23;1.77;;;0.80;;
40737;SDS011;54759;48.094;-1.628;2023-07-20T08:43:34;2.58;;;0.90;;
40737;SDS011;54759;48.094;-1.628;2023-07-20T08:46:38;1.30;;;0.60;;
40737;SDS011;54759;48.094;-1.628;2023-07-20T08:49:40;0.98;;;0.70;;
40737;SDS011;54759;48.094;-1.628;2023-07-20T08:52:44;0.50;;;0.47;;
40737;SDS011;54759;48.094;-1.628;2023-07-20T08:55:46;1.50;;;0.60;;
40737;SDS011;54759;48.094;-1.628;2023-07-20T08:58:51;2.45;;;0.50;;
40737;SDS011;54759;48.094;-1.628;2023-07-20T09:01:53;0.80;;;0.52;;
40737;SDS011;54759;48.094;-1.628;2023-07-20T09:04:58;0.60;;;0.40;;
40737;SDS011;54759;48.094;-1.628;2023-07-20T09:08:00;0.55;;;0.50;;
40737;SDS011;54759;48.094;-1.628;2023-07-20T09:11:04;0.40;;;0.40;;
40737;SDS011;54759;48.094;-1.628;2023-07-20T09:14:06;0.75;;;0.50;;
40737;SDS011;54759;48.094;-1.628;2023-07-20T09:17:12;3.35;;;0.70;;
40737;SDS011;54759;48.094;-1.628;2023-07-20T09:20:18;2.22;;;0.75;;
40737;SDS011;54759;48.094;-1.628;2023-07-20T09:23:29;1.25;;;0.60;;
40737;SDS011;54759;48.094;-1.628;2023-07-20T09:26:33;1.27;;;0.60;;
40737;SDS011;54759;48.094;-1.628;2023-07-20T09:29:47;0.80;;;0.60;;
40737;SDS011;54759;48.094;-1.628;2023-07-20T09:32:52;0.93;;;0.55;;
40737;SDS011;54759;48.094;-1.628;2023-07-20T09:36:02;0.88;;;0.57;;
40737;SDS011;54759;48.094;-1.628;2023-07-20T09:39:26;1.53;;;0.90;;
40737;SDS011;54759;48.094;-1.628;2023-07-20T09:42:31;0.70;;;0.50;;
40737;SDS011;54759;48.094;-1.628;2023-07-20T09:45:38;0.70;;;0.60;;
40737;SDS011;54759;48.094;-1.628;2023-07-20T09:48:59;2.30;;;0.80;;
40737;SDS011;54759;48.094;-1.628;2023-07-20T09:52:04;0.90;;;0.55;;
40737;SDS011;54759;48.094;-1.628;2023-07-20T09:55:06;0.65;;;0.43;;
40737;SDS011;54759;48.094;-1.628;2023-07-20T09:58:09;1.10;;;0.40;;
40737;SDS011;54759;48.094;-1.628;2023-07-20T10:01:11;1.02;;;0.40;;
40737;SDS011;54759;48.094;-1.628;2023-07-20T10:04:16;0.75;;;0.30;;
40737;SDS011;54759;48.094;-1.628;2023-07-20T10:07:23;0.40;;;0.22;;
40737;SDS011;54759;48.094;-1.628;2023-07-20T10:10:28;0.40;;;0.30;;
40737;SDS011;54759;48.094;-1.628;2023-07-20T10:13:32;0.52;;;0.30;;
40737;SDS011;54759;48.094;-1.628;2023-07-20T10:16:39;1.40;;;0.40;;
40737;SDS011;54759;48.094;-1.628;2023-07-20T10:19:51;1.52;;;0.50;;
40737;SDS011;54759;48.094;-1.628;2023-07-20T10:22:57;0.98;;;0.40;;
40737;SDS011;54759;48.094;-1.628;2023-07-20T10:26:00;0.50;;;0.30;;
40737;SDS011;54759;48.094;-1.628;2023-07-20T10:29:06;0.60;;;0.40;;
40737;SDS011;54759;48.094;-1.628;2023-07-20T10:32:08;0.50;;;0.50;;
40737;SDS011;54759;48.094;-1.628;2023-07-20T10:35:12;0.40;;;0.40;;
40737;SDS011;54759;48.094;-1.628;2023-07-20T10:38:15;0.45;;;0.40;;
40737;SDS011;54759;48.094;-1.628;2023-07-20T10:41:20;0.50;;;0.35;;
40737;SDS011;54759;48.094;-1.628;2023-07-20T10:44:25;0.45;;;0.30;;
40737;SDS011;54759;48.094;-1.628;2023-07-20T10:47:27;0.47;;;0.30;;
40737;SDS011;54759;48.094;-1.628;2023-07-20T10:50:29;0.52;;;0.30;;
40737;SDS011;54759;48.094;-1.628;2023-07-20T10:53:33;0.35;;;0.35;;
40737;SDS011;54759;48.094;-1.628;2023-07-20T10:56:37;0.50;;;0.30;;
40737;SDS011;54759;48.094;-1.628;2023-07-20T10:59:40;0.40;;;0.30;;
40737;SDS011;54759;48.094;-1.628;2023-07-20T11:02:42;0.30;;;0.30;;
40737;SDS011;54759;48.094;-1.628;2023-07-20T11:05:54;0.50;;;0.40;;
40737;SDS011;54759;48.094;-1.628;2023-07-20T11:08:56;1.13;;;0.50;;
40737;SDS011;54759;48.094;-1.628;2023-07-20T11:12:09;0.52;;;0.40;;
40737;SDS011;54759;48.094;-1.628;2023-07-20T11:15:12;0.40;;;0.30;;
40737;SDS011;54759;48.094;-1.628;2023-07-20T11:18:13;0.63;;;0.30;;
40737;SDS011;54759;48.094;-1.628;2023-07-20T11:21:16;0.45;;;0.40;;
40737;SDS011;54759;48.094;-1.628;2023-07-20T11:24:17;1.95;;;0.40;;
40737;SDS011;54759;48.094;-1.628;2023-07-20T11:27:20;0.45;;;0.32;;
40737;SDS011;54759;48.094;-1.628;2023-07-20T11:30:23;0.70;;;0.47;;
40737;SDS011;54759;48.094;-1.628;2023-07-20T11:33:26;0.70;;;0.40;;
40737;SDS011;54759;48.094;-1.628;2023-07-20T11:36:28;0.40;;;0.40;;
40737;SDS011;54759;48.094;-1.628;2023-07-20T11:39:33;0.20;;;0.20;;
40737;SDS011;54759;48.094;-1.628;2023-07-20T11:42:34;0.90;;;0.57;;
40737;SDS011;54759;48.094;-1.628;2023-07-20T11:45:40;2.35;;;0.60;;
40737;SDS011;54759;48.094;-1.628;2023-07-20T11:48:42;1.27;;;0.60;;
40737;SDS011;54759;48.094;-1.628;2023-07-20T11:51:44;2.00;;;0.73;;
40737;SDS011;54759;48.094;-1.628;2023-07-20T11:54:47;1.65;;;0.70;;
40737;SDS011;54759;48.094;-1.628;2023-07-20T11:58:00;0.75;;;0.60;;
40737;SDS011;54759;48.094;-1.628;2023-07-20T12:01:03;1.20;;;0.60;;
40737;SDS011;54759;48.094;-1.628;2023-07-20T12:04:05;1.08;;;0.60;;
40737;SDS011;54759;48.094;-1.628;2023-07-20T12:07:07;1.70;;;0.68;;
40737;SDS011;54759;48.094;-1.628;2023-07-20T12:10:10;1.23;;;0.60;;
40737;SDS011;54759;48.094;-1.628;2023-07-20T12:13:14;1.35;;;0.50;;
40737;SDS011;54759;48.094;-1.628;2023-07-20T12:16:19;0.85;;;0.60;;
40737;SDS011;54759;48.094;-1.628;2023-07-20T12:19:24;7.20;;;1.40;;
40737;SDS011;54759;48.094;-1.628;2023-07-20T12:22:26;0.43;;;0.40;;
40737;SDS011;54759;48.094;-1.628;2023-07-20T12:28:41;1.13;;;0.90;;
40737;SDS011;54759;48.094;-1.628;2023-07-20T12:31:43;1.25;;;0.65;;
40737;SDS011;54759;48.094;-1.628;2023-07-20T12:34:46;0.55;;;0.38;;
40737;SDS011;54759;48.094;-1.628;2023-07-20T12:37:48;0.70;;;0.57;;
40737;SDS011;54759;48.094;-1.628;2023-07-20T12:40:51;0.45;;;0.38;;
40737;SDS011;54759;48.094;-1.628;2023-07-20T12:43:55;1.50;;;0.60;;
40737;SDS011;54759;48.094;-1.628;2023-07-20T12:46:59;0.63;;;0.50;;
40737;SDS011;54759;48.094;-1.628;2023-07-20T12:50:02;0.70;;;0.47;;
40737;SDS011;54759;48.094;-1.628;2023-07-20T12:53:07;0.80;;;0.52;;
40737;SDS011;54759;48.094;-1.628;2023-07-20T12:56:08;1.05;;;0.40;;
40737;SDS011;54759;48.094;-1.628;2023-07-20T12:59:13;0.68;;;0.50;;
40737;SDS011;54759;48.094;-1.628;2023-07-20T13:02:16;0.60;;;0.40;;
40737;SDS011;54759;48.094;-1.628;2023-07-20T13:05:18;0.40;;;0.35;;
40737;SDS011;54759;48.094;-1.628;2023-07-20T13:08:39;1.13;;;0.25;;
40737;SDS011;54759;48.094;-1.628;2023-07-20T13:11:41;0.40;;;0.40;;
40737;SDS011;54759;48.094;-1.628;2023-07-20T13:14:43;0.63;;;0.47;;
40737;SDS011;54759;48.094;-1.628;2023-07-20T13:17:46;0.57;;;0.30;;
40737;SDS011;54759;48.094;-1.628;2023-07-20T13:20:48;0.55;;;0.40;;
40737;SDS011;54759;48.094;-1.628;2023-07-20T13:23:49;0.20;;;0.20;;
40737;SDS011;54759;48.094;-1.628;2023-07-20T13:26:51;1.17;;;0.30;;
40737;SDS011;54759;48.094;-1.628;2023-07-20T13:29:53;1.02;;;0.20;;
40737;SDS011;54759;48.094;-1.628;2023-07-20T13:32:56;0.30;;;0.30;;
40737;SDS011;54759;48.094;-1.628;2023-07-20T13:35:58;0.57;;;0.20;;
40737;SDS011;54759;48.094;-1.628;2023-07-20T13:39:03;1.17;;;0.28;;
40737;SDS011;54759;48.094;-1.628;2023-07-20T13:42:08;0.50;;;0.35;;
40737;SDS011;54759;48.094;-1.628;2023-07-20T13:45:11;1.95;;;0.40;;
40737;SDS011;54759;48.094;-1.628;2023-07-20T13:48:14;0.28;;;0.25;;
40737;SDS011;54759;48.094;-1.628;2023-07-20T13:51:21;0.75;;;0.40;;
40737;SDS011;54759;48.094;-1.628;2023-07-20T13:54:28;0.30;;;0.30;;
40737;SDS011;54759;48.094;-1.628;2023-07-20T13:57:30;0.55;;;0.30;;
40737;SDS011;54759;48.094;-1.628;2023-07-20T14:00:32;0.45;;;0.40;;
40737;SDS011;54759;48.094;-1.628;2023-07-20T14:03:36;0.32;;;0.30;;
40737;SDS011;54759;48.094;-1.628;2023-07-20T14:06:38;0.55;;;0.38;;
40737;SDS011;54759;48.094;-1.628;2023-07-20T14:09:40;0.40;;;0.30;;
40737;SDS011;54759;48.094;-1.628;2023-07-20T14:12:45;0.47;;;0.32;;
40737;SDS011;54759;48.094;-1.628;2023-07-20T14:15:47;0.30;;;0.25;;
40737;SDS011;54759;48.094;-1.628;2023-07-20T14:18:51;3.30;;;0.38;;
40737;SDS011;54759;48.094;-1.628;2023-07-20T14:21:53;0.70;;;0.32;;
40737;SDS011;54759;48.094;-1.628;2023-07-20T14:24:55;0.52;;;0.30;;
40737;SDS011;54759;48.094;-1.628;2023-07-20T14:28:00;0.30;;;0.28;;
40737;SDS011;54759;48.094;-1.628;2023-07-20T14:31:02;0.40;;;0.30;;
40737;SDS011;54759;48.094;-1.628;2023-07-20T14:34:04;0.55;;;0.40;;
40737;SDS011;54759;48.094;-1.628;2023-07-20T14:37:06;0.20;;;0.20;;
40737;SDS011;54759;48.094;-1.628;2023-07-20T14:40:10;0.60;;;0.30;;
40737;SDS011;54759;48.094;-1.628;2023-07-20T14:43:12;0.35;;;0.30;;
40737;SDS011;54759;48.094;-1.628;2023-07-20T14:46:14;0.20;;;0.20;;
40737;SDS011;54759;48.094;-1.628;2023-07-20T14:49:19;0.45;;;0.38;;
40737;SDS011;54759;48.094;-1.628;2023-07-20T14:52:22;0.50;;;0.30;;
40737;SDS011;54759;48.094;-1.628;2023-07-20T14:55:29;0.40;;;0.32;;
40737;SDS011;54759;48.094;-1.628;2023-07-20T14:58:31;0.40;;;0.30;;
40737;SDS011;54759;48.094;-1.628;2023-07-20T15:01:36;0.35;;;0.30;;
40737;SDS011;54759;48.094;-1.628;2023-07-20T15:04:39;1.48;;;0.20;;
40737;SDS011;54759;48.094;-1.628;2023-07-20T15:07:47;0.30;;;0.25;;
40737;SDS011;54759;48.094;-1.628;2023-07-20T15:10:49;0.50;;;0.30;;
40737;SDS011;54759;48.094;-1.628;2023-07-20T15:13:51;0.40;;;0.30;;
40737;SDS011;54759;48.094;-1.628;2023-07-20T15:16:52;0.28;;;0.28;;
40737;SDS011;54759;48.094;-1.628;2023-07-20T15:19:55;0.35;;;0.35;;
40737;SDS011;54759;48.094;-1.628;2023-07-20T15:22:57;0.40;;;0.30;;
40737;SDS011;54759;48.094;-1.628;2023-07-20T15:25:59;0.90;;;0.30;;
40737;SDS011;54759;48.094;-1.628;2023-07-20T15:29:01;0.30;;;0.30;;
40737;SDS011;54759;48.094;-1.628;2023-07-20T15:32:03;0.35;;;0.30;;
40737;SDS011;54759;48.094;-1.628;2023-07-20T15:35:06;0.20;;;0.20;;
40737;SDS011;54759;48.094;-1.628;2023-07-20T15:38:09;0.57;;;0.25;;
40737;SDS011;54759;48.094;-1.628;2023-07-20T15:41:11;0.90;;;0.25;;
40737;SDS011;54759;48.094;-1.628;2023-07-20T15:44:14;0.30;;;0.30;;
40737;SDS011;54759;48.094;-1.628;2023-07-20T15:47:16;0.22;;;0.22;;
40737;SDS011;54759;48.094;-1.628;2023-07-20T15:50:20;0.30;;;0.30;;
40737;SDS011;54759;48.094;-1.628;2023-07-20T15:53:23;0.20;;;0.20;;
40737;SDS011;54759;48.094;-1.628;2023-07-20T15:56:25;0.57;;;0.28;;
40737;SDS011;54759;48.094;-1.628;2023-07-20T15:59:27;0.30;;;0.20;;
40737;SDS011;54759;48.094;-1.628;2023-07-20T16:02:29;0.28;;;0.20;;
40737;SDS011;54759;48.094;-1.628;2023-07-20T16:05:33;0.32;;;0.30;;
40737;SDS011;54759;48.094;-1.628;2023-07-20T16:08:35;0.20;;;0.20;;
40737;SDS011;54759;48.094;-1.628;2023-07-20T16:11:37;0.20;;;0.20;;
40737;SDS011;54759;48.094;-1.628;2023-07-20T16:14:39;0.20;;;0.20;;
40737;SDS011;54759;48.094;-1.628;2023-07-20T16:17:46;0.20;;;0.20;;
40737;SDS011;54759;48.094;-1.628;2023-07-20T16:20:48;0.90;;;0.20;;
40737;SDS011;54759;48.094;-1.628;2023-07-20T16:23:50;0.52;;;0.30;;
40737;SDS011;54759;48.094;-1.628;2023-07-20T16:26:52;0.30;;;0.20;;
40737;SDS011;54759;48.094;-1.628;2023-07-20T16:29:54;0.30;;;0.30;;
40737;SDS011;54759;48.094;-1.628;2023-07-20T16:32:56;0.45;;;0.30;;
40737;SDS011;54759;48.094;-1.628;2023-07-20T16:35:59;0.22;;;0.20;;
40737;SDS011;54759;48.094;-1.628;2023-07-20T16:39:03;0.30;;;0.20;;
40737;SDS011;54759;48.094;-1.628;2023-07-20T16:42:08;0.20;;;0.10;;
40737;SDS011;54759;48.094;-1.628;2023-07-20T16:45:10;0.50;;;0.20;;
40737;SDS011;54759;48.094;-1.628;2023-07-20T16:48:13;1.38;;;0.30;;
40737;SDS011;54759;48.094;-1.628;2023-07-20T16:51:20;0.20;;;0.20;;
40737;SDS011;54759;48.094;-1.628;2023-07-20T16:54:22;0.10;;;0.10;;
40737;SDS011;54759;48.094;-1.628;2023-07-20T16:57:24;0.30;;;0.20;;
40737;SDS011;54759;48.094;-1.628;2023-07-20T17:00:26;0.20;;;0.17;;
40737;SDS011;54759;48.094;-1.628;2023-07-20T17:03:28;0.20;;;0.20;;
40737;SDS011;54759;48.094;-1.628;2023-07-20T17:06:30;0.30;;;0.30;;
40737;SDS011;54759;48.094;-1.628;2023-07-20T17:09:32;0.20;;;0.15;;
40737;SDS011;54759;48.094;-1.628;2023-07-20T17:12:36;0.20;;;0.20;;
40737;SDS011;54759;48.094;-1.628;2023-07-20T17:15:39;1.17;;;0.30;;
40737;SDS011;54759;48.094;-1.628;2023-07-20T17:18:42;0.22;;;0.20;;
40737;SDS011;54759;48.094;-1.628;2023-07-20T17:21:44;0.10;;;0.10;;
40737;SDS011;54759;48.094;-1.628;2023-07-20T17:24:49;0.25;;;0.20;;
40737;SDS011;54759;48.094;-1.628;2023-07-20T17:27:54;0.25;;;0.20;;
40737;SDS011;54759;48.094;-1.628;2023-07-20T17:30:59;0.22;;;0.20;;
40737;SDS011;54759;48.094;-1.628;2023-07-20T17:34:01;0.15;;;0.15;;
40737;SDS011;54759;48.094;-1.628;2023-07-20T17:37:04;0.30;;;0.30;;
40737;SDS011;54759;48.094;-1.628;2023-07-20T17:40:09;0.30;;;0.30;;
40737;SDS011;54759;48.094;-1.628;2023-07-20T17:43:14;0.25;;;0.20;;
40737;SDS011;54759;48.094;-1.628;2023-07-20T17:46:16;0.10;;;0.10;;
40737;SDS011;54759;48.094;-1.628;2023-07-20T17:49:21;0.20;;;0.20;;
40737;SDS011;54759;48.094;-1.628;2023-07-20T17:52:24;0.20;;;0.10;;
40737;SDS011;54759;48.094;-1.628;2023-07-20T17:55:26;0.35;;;0.22;;
40737;SDS011;54759;48.094;-1.628;2023-07-20T17:58:29;0.20;;;0.10;;
40737;SDS011;54759;48.094;-1.628;2023-07-20T18:01:31;0.20;;;0.20;;
40737;SDS011;54759;48.094;-1.628;2023-07-20T18:04:33;0.32;;;0.25;;
40737;SDS011;54759;48.094;-1.628;2023-07-20T18:07:38;0.15;;;0.15;;
40737;SDS011;54759;48.094;-1.628;2023-07-20T18:10:40;0.20;;;0.20;;
40737;SDS011;54759;48.094;-1.628;2023-07-20T18:13:45;0.15;;;0.15;;